Time;durP1;ratioP1;P1;durP2;ratioP2;P2;SDS_P1;SDS_P2;PMS_P1;PMS_P2;Temp;Humidity;BMP_temperature;BMP_pressure;BME280_temperature;BME280_humidity;BME280_pressure;Samples;Min_cycle;Max_cycle;Signal;HPM_P1;HPM_P2
2021/11/06 00:01:28;;;;;;;24.95;14.38;;;8.00;99.90;;;;;;5089866;28;20046;-48
2021/11/06 00:03:54;;;;;;;25.95;13.75;;;8.00;99.90;;;;;;5089666;28;20388;-48
2021/11/06 00:06:19;;;;;;;25.48;13.85;;;8.00;99.90;;;;;;5089305;28;20229;-51
2021/11/06 00:08:45;;;;;;;28.13;13.52;;;8.00;99.90;;;;;;5076469;28;20090;-51
2021/11/06 00:11:10;;;;;;;30.85;13.80;;;8.00;99.90;;;;;;5088354;28;20035;-48
2021/11/06 00:13:36;;;;;;;34.05;13.82;;;8.10;99.90;;;;;;5089759;28;20039;-50
2021/11/06 00:16:01;;;;;;;25.23;13.60;;;8.00;99.90;;;;;;5089552;28;20024;-49
2021/11/06 00:18:27;;;;;;;20.20;13.05;;;8.00;99.90;;;;;;5088953;28;20367;-49
2021/11/06 00:20:52;;;;;;;23.55;12.82;;;8.10;99.90;;;;;;5089501;28;20536;-50
2021/11/06 00:23:18;;;;;;;22.55;12.45;;;8.10;99.90;;;;;;5089657;28;20020;-50
2021/11/06 00:25:43;;;;;;;26.67;13.75;;;8.10;99.90;;;;;;5089523;28;20103;-51
2021/11/06 00:28:09;;;;;;;21.70;11.88;;;8.10;99.90;;;;;;5088681;28;20252;-51
2021/11/06 00:30:35;;;;;;;25.65;12.35;;;8.20;99.90;;;;;;5089343;28;20036;-50
2021/11/06 00:33:01;;;;;;;24.23;12.98;;;8.20;99.90;;;;;;5089192;28;20518;-51
2021/11/06 00:35:26;;;;;;;22.27;12.98;;;8.20;99.90;;;;;;5073255;28;20089;-50
2021/11/06 00:37:52;;;;;;;22.15;11.98;;;8.20;99.90;;;;;;5087727;28;20032;-51
2021/11/06 00:40:18;;;;;;;26.42;12.38;;;8.20;99.90;;;;;;5089048;28;20024;-51
2021/11/06 00:42:44;;;;;;;22.58;11.70;;;8.20;99.90;;;;;;5089352;28;20031;-50
2021/11/06 00:45:10;;;;;;;23.67;12.68;;;8.20;99.90;;;;;;5088804;28;20043;-50
2021/11/06 00:47:36;;;;;;;23.42;11.50;;;8.20;99.90;;;;;;5088452;28;20103;-50
2021/11/06 00:50:03;;;;;;;25.05;12.18;;;8.20;99.90;;;;;;5088697;28;20035;-50
2021/11/06 00:52:29;;;;;;;21.00;11.52;;;8.20;99.90;;;;;;5088640;28;20028;-51
2021/11/06 00:54:54;;;;;;;27.67;12.55;;;8.20;99.90;;;;;;5078757;28;20016;-51
2021/11/06 00:57:20;;;;;;;22.83;11.20;;;8.10;99.90;;;;;;5078231;28;20108;-48
2021/11/06 00:59:46;;;;;;;27.00;11.85;;;8.20;99.90;;;;;;5088641;28;20024;-50
2021/11/06 01:02:12;;;;;;;25.23;11.45;;;8.10;99.90;;;;;;5088839;28;20429;-50
2021/11/06 01:04:37;;;;;;;22.15;10.50;;;8.10;99.90;;;;;;5088806;28;20021;-48
2021/11/06 01:07:04;;;;;;;19.58;10.75;;;8.10;99.90;;;;;;5071130;28;20008;-51
2021/11/06 01:09:29;;;;;;;22.13;10.35;;;8.10;99.90;;;;;;5084786;28;20020;-49
2021/11/06 01:11:55;;;;;;;26.15;11.07;;;8.10;99.90;;;;;;5088560;28;20055;-48
2021/11/06 01:14:21;;;;;;;24.98;9.55;;;8.00;99.90;;;;;;5088775;28;20020;-51
2021/11/06 01:16:46;;;;;;;22.23;10.45;;;8.00;99.90;;;;;;5087211;28;20456;-48
2021/11/06 01:19:12;;;;;;;20.55;9.65;;;8.00;99.90;;;;;;5088183;28;20032;-52
2021/11/06 01:21:37;;;;;;;19.52;9.40;;;8.00;99.90;;;;;;5088323;28;20032;-52
2021/11/06 01:24:04;;;;;;;20.50;10.00;;;8.00;99.90;;;;;;5088466;28;20025;-52
2021/11/06 01:26:30;;;;;;;24.25;10.00;;;8.00;99.90;;;;;;5088499;28;20024;-52
2021/11/06 01:28:55;;;;;;;21.08;10.57;;;7.90;99.90;;;;;;5087875;28;20039;-52
2021/11/06 01:31:21;;;;;;;20.00;10.18;;;8.00;99.90;;;;;;5088569;28;20082;-50
2021/11/06 01:33:47;;;;;;;18.67;10.50;;;8.00;99.90;;;;;;5087139;28;20127;-51
2021/11/06 01:36:12;;;;;;;23.25;10.52;;;8.00;99.90;;;;;;5077501;28;20020;-51
2021/11/06 01:38:38;;;;;;;25.58;10.35;;;8.00;99.90;;;;;;5078973;28;20069;-50
2021/11/06 01:41:04;;;;;;;21.23;9.65;;;7.90;99.90;;;;;;5087033;28;20043;-52
2021/11/06 01:43:29;;;;;;;20.15;9.55;;;8.00;99.90;;;;;;5086917;28;20111;-50
2021/11/06 01:45:57;;;;;;;19.85;9.13;;;8.00;99.90;;;;;;5088351;28;20311;-48
2021/11/06 01:48:23;;;;;;;16.73;9.13;;;7.90;99.90;;;;;;5087412;28;20024;-50
2021/11/06 01:50:49;;;;;;;17.15;9.18;;;7.90;99.90;;;;;;5086897;28;20456;-49
2021/11/06 01:53:14;;;;;;;21.10;10.10;;;7.90;99.90;;;;;;5088164;28;20032;-49
2021/11/06 01:55:40;;;;;;;17.58;9.32;;;7.90;99.90;;;;;;5088299;28;20052;-49
2021/11/06 01:58:07;;;;;;;18.05;8.93;;;7.90;99.90;;;;;;5090570;28;20066;-49
2021/11/06 02:00:33;;;;;;;24.55;10.43;;;7.90;99.90;;;;;;5092363;28;20453;-49
2021/11/06 02:02:58;;;;;;;17.55;8.65;;;7.90;99.90;;;;;;5092520;28;20028;-47
2021/11/06 02:05:24;;;;;;;15.43;7.57;;;7.90;99.90;;;;;;5092048;28;20031;-50
2021/11/06 02:07:51;;;;;;;27.55;9.48;;;7.90;99.90;;;;;;5079916;28;20059;-49
2021/11/06 02:10:17;;;;;;;17.55;8.73;;;7.90;99.90;;;;;;5071680;28;20078;-50
2021/11/06 02:12:43;;;;;;;16.67;9.95;;;7.90;99.90;;;;;;5071859;28;20021;-51
2021/11/06 02:15:11;;;;;;;27.17;9.18;;;7.90;99.90;;;;;;5071850;28;20107;-49
2021/11/06 02:17:36;;;;;;;17.00;7.97;;;7.90;99.90;;;;;;5070826;28;20371;-50
2021/11/06 02:20:05;;;;;;;15.77;8.57;;;7.90;99.90;;;;;;5071536;28;20107;-48
2021/11/06 02:22:32;;;;;;;19.70;8.65;;;7.90;99.90;;;;;;5071343;28;20021;-48
2021/11/06 02:24:57;;;;;;;19.50;8.48;;;7.90;99.90;;;;;;5071565;28;20032;-49
2021/11/06 02:27:23;;;;;;;22.13;9.73;;;7.90;99.90;;;;;;5070973;28;20181;-49
2021/11/06 02:29:50;;;;;;;22.55;8.50;;;8.00;99.90;;;;;;5071384;28;20494;-50
2021/11/06 02:32:15;;;;;;;18.85;8.95;;;8.00;99.90;;;;;;5071347;28;20032;-49
2021/11/06 02:34:42;;;;;;;15.90;8.18;;;8.00;99.90;;;;;;5071355;28;20081;-48
2021/11/06 02:37:07;;;;;;;16.23;9.07;;;8.00;99.90;;;;;;5073550;28;20024;-51
2021/11/06 02:39:33;;;;;;;21.40;9.48;;;8.00;99.90;;;;;;5087957;28;20028;-50
2021/11/06 02:42:06;;;;;;;21.33;10.95;;;8.00;99.90;;;;;;5091447;28;20035;-50
2021/11/06 02:44:31;;;;;;;21.70;9.52;;;8.10;99.90;;;;;;5091334;28;20020;-48
2021/11/06 02:46:57;;;;;;;18.58;9.38;;;8.10;99.90;;;;;;5091042;28;20024;-49
2021/11/06 02:49:23;;;;;;;17.52;9.88;;;8.10;99.90;;;;;;5090744;28;20060;-50
2021/11/06 02:51:49;;;;;;;18.33;9.60;;;8.10;99.90;;;;;;5091155;28;20392;-50
2021/11/06 02:54:15;;;;;;;22.65;10.15;;;8.10;99.90;;;;;;5091105;28;20027;-50
2021/11/06 02:56:40;;;;;;;18.77;10.07;;;8.10;99.90;;;;;;5091107;28;20120;-49
2021/11/06 02:59:06;;;;;;;26.17;11.27;;;8.10;99.90;;;;;;5089292;28;20469;-50
2021/11/06 03:01:31;;;;;;;18.33;9.88;;;8.10;99.90;;;;;;5089766;28;20089;-48
2021/11/06 03:03:57;;;;;;;22.33;11.20;;;8.10;99.90;;;;;;5089705;28;20031;-48
2021/11/06 03:06:23;;;;;;;19.40;9.43;;;8.10;99.90;;;;;;5080461;28;20028;-47
2021/11/06 03:08:48;;;;;;;20.42;10.50;;;8.10;99.90;;;;;;5074610;28;20358;-50
2021/11/06 03:11:14;;;;;;;16.52;10.32;;;8.10;99.90;;;;;;5084867;28;20024;-49
2021/11/06 03:13:41;;;;;;;20.30;9.85;;;8.10;99.90;;;;;;5090814;28;20028;-48
2021/11/06 03:16:10;;;;;;;18.25;9.30;;;8.20;99.90;;;;;;5090720;28;20473;-50
2021/11/06 03:18:36;;;;;;;23.38;9.98;;;8.20;99.90;;;;;;5089882;28;20461;-48
2021/11/06 03:21:02;;;;;;;17.35;9.23;;;8.20;99.90;;;;;;5070788;28;20028;-50
2021/11/06 03:23:28;;;;;;;19.88;8.95;;;8.20;99.90;;;;;;5086371;28;20016;-50
2021/11/06 03:25:54;;;;;;;23.98;9.85;;;8.20;99.90;;;;;;5090664;28;20273;-50
2021/11/06 03:28:20;;;;;;;17.40;8.93;;;8.30;99.90;;;;;;5090125;28;20024;-50
2021/11/06 03:30:46;;;;;;;22.20;9.23;;;8.30;99.90;;;;;;5090496;28;20031;-50
2021/11/06 03:33:11;;;;;;;20.27;10.50;;;8.30;99.90;;;;;;5090513;28;20047;-48
2021/11/06 03:35:37;;;;;;;23.50;9.57;;;8.20;99.90;;;;;;5090704;28;20036;-50
2021/11/06 03:38:02;;;;;;;19.27;10.18;;;8.30;99.90;;;;;;5089285;28;20095;-48
2021/11/06 03:40:28;;;;;;;16.67;9.50;;;8.30;99.90;;;;;;5089982;28;20051;-51
2021/11/06 03:42:53;;;;;;;21.80;11.60;;;8.30;99.90;;;;;;5090183;28;20027;-51
2021/11/06 03:45:19;;;;;;;21.27;11.07;;;8.30;99.90;;;;;;5090238;28;20020;-51
2021/11/06 03:47:44;;;;;;;23.10;10.52;;;8.30;99.90;;;;;;5089638;28;20020;-51
2021/11/06 03:50:11;;;;;;;15.88;9.50;;;8.30;99.90;;;;;;5075406;28;20098;-48
2021/11/06 03:52:37;;;;;;;15.63;9.15;;;8.30;99.90;;;;;;5081369;28;20107;-47
2021/11/06 03:55:04;;;;;;;18.38;10.10;;;8.30;99.90;;;;;;5088707;28;20147;-48
2021/11/06 03:57:30;;;;;;;18.23;9.75;;;8.40;99.90;;;;;;5088871;28;20402;-50
2021/11/06 03:59:56;;;;;;;19.48;10.50;;;8.40;99.90;;;;;;5089370;28;20031;-51
2021/11/06 04:02:22;;;;;;;19.17;10.88;;;8.30;99.90;;;;;;5072701;28;20276;-50
2021/11/06 04:04:47;;;;;;;17.92;9.85;;;8.30;99.90;;;;;;5060537;28;20025;-48
2021/11/06 04:07:13;;;;;;;17.10;10.00;;;8.30;99.90;;;;;;5068857;28;20304;-48
2021/11/06 04:09:38;;;;;;;20.38;9.98;;;8.30;99.90;;;;;;5064271;28;20036;-51
2021/11/06 04:12:04;;;;;;;17.90;11.18;;;8.30;99.90;;;;;;5059929;28;20047;-47
2021/11/06 04:14:29;;;;;;;19.83;11.52;;;8.30;99.90;;;;;;5058772;28;20025;-48
2021/11/06 04:16:56;;;;;;;23.88;10.82;;;8.30;99.90;;;;;;5057943;28;20024;-49
2021/11/06 04:19:22;;;;;;;21.13;10.55;;;8.30;99.90;;;;;;5061320;28;20478;-51
2021/11/06 04:21:47;;;;;;;18.77;10.80;;;8.30;99.90;;;;;;5067138;28;20032;-50
2021/11/06 04:24:13;;;;;;;20.77;11.10;;;8.30;99.90;;;;;;5067519;28;20024;-50
2021/11/06 04:26:38;;;;;;;19.20;10.85;;;8.30;99.90;;;;;;5069007;28;20024;-51
2021/11/06 04:29:04;;;;;;;22.80;9.98;;;8.30;99.90;;;;;;5067080;28;20089;-51
2021/11/06 04:31:29;;;;;;;24.38;11.38;;;8.30;99.90;;;;;;5063226;28;20402;-51
2021/11/06 04:33:55;;;;;;;22.45;11.60;;;8.30;99.90;;;;;;5066123;28;20033;-51
2021/11/06 04:36:20;;;;;;;18.50;10.50;;;8.30;99.90;;;;;;5068788;28;20036;-51
2021/11/06 04:38:46;;;;;;;18.85;10.18;;;8.30;99.90;;;;;;5073120;28;20035;-51
2021/11/06 04:41:11;;;;;;;20.38;10.68;;;8.30;99.90;;;;;;5082552;28;20032;-50
2021/11/06 04:43:38;;;;;;;19.77;10.95;;;8.30;99.90;;;;;;5089138;28;20024;-50
2021/11/06 04:46:04;;;;;;;15.80;9.68;;;8.30;99.90;;;;;;5088920;28;20470;-50
2021/11/06 04:48:30;;;;;;;17.80;10.82;;;8.40;99.90;;;;;;5088311;28;20028;-51
2021/11/06 04:50:55;;;;;;;19.20;10.93;;;8.30;99.90;;;;;;5088844;28;20030;-50
2021/11/06 04:53:22;;;;;;;19.88;11.20;;;8.40;99.90;;;;;;5088718;28;20020;-50
2021/11/06 04:55:47;;;;;;;18.45;12.10;;;8.40;99.90;;;;;;5088955;28;20505;-50
2021/11/06 04:58:13;;;;;;;19.75;11.65;;;8.40;99.90;;;;;;5088221;28;20107;-49
2021/11/06 05:00:38;;;;;;;25.40;11.32;;;8.40;99.90;;;;;;5088661;28;20213;-51
2021/11/06 05:03:04;;;;;;;21.50;12.23;;;8.40;99.90;;;;;;5088682;28;20012;-48
2021/11/06 05:05:29;;;;;;;18.60;11.73;;;8.30;99.90;;;;;;5087553;28;20065;-48
2021/11/06 05:07:55;;;;;;;19.88;11.02;;;8.30;99.90;;;;;;5084061;28;20028;-51
2021/11/06 05:10:20;;;;;;;27.75;11.68;;;8.30;99.90;;;;;;5080293;28;20024;-50
2021/11/06 05:12:48;;;;;;;16.92;11.25;;;8.30;99.90;;;;;;5087625;28;20016;-51
2021/11/06 05:15:14;;;;;;;20.67;11.50;;;8.30;99.90;;;;;;5088662;28;20047;-50
2021/11/06 05:17:40;;;;;;;19.05;10.48;;;8.30;99.90;;;;;;5088013;28;20448;-48
2021/11/06 05:20:06;;;;;;;27.42;11.68;;;8.30;99.90;;;;;;5088574;28;20468;-49
2021/11/06 05:22:32;;;;;;;15.32;10.23;;;8.30;99.90;;;;;;5088774;28;20020;-48
2021/11/06 05:24:58;;;;;;;19.75;10.13;;;8.30;99.90;;;;;;5088368;28;20027;-48
2021/11/06 05:27:23;;;;;;;20.80;11.50;;;8.30;99.90;;;;;;5087664;28;20111;-49
2021/11/06 05:29:50;;;;;;;21.23;10.93;;;8.30;99.90;;;;;;5088401;28;20173;-51
2021/11/06 05:32:15;;;;;;;21.42;11.88;;;8.30;99.90;;;;;;5089693;28;20394;-48
2021/11/06 05:34:41;;;;;;;17.50;10.60;;;8.30;99.90;;;;;;5092688;28;20016;-48
2021/11/06 05:37:07;;;;;;;17.02;10.40;;;8.30;99.90;;;;;;5090648;28;20020;-48
2021/11/06 05:39:32;;;;;;;15.70;11.00;;;8.30;99.90;;;;;;5082596;28;20020;-49
2021/11/06 05:41:58;;;;;;;18.08;10.63;;;8.30;99.90;;;;;;5092589;28;20386;-48
2021/11/06 05:44:24;;;;;;;18.27;10.63;;;8.30;99.90;;;;;;5092385;28;20085;-48
2021/11/06 05:46:49;;;;;;;22.55;11.45;;;8.30;99.90;;;;;;5092693;28;20020;-47
2021/11/06 05:49:15;;;;;;;24.25;10.18;;;8.40;99.90;;;;;;5092063;28;20028;-50
2021/11/06 05:51:40;;;;;;;19.48;11.45;;;8.30;99.90;;;;;;5092479;28;20024;-50
2021/11/06 05:54:06;;;;;;;17.10;10.73;;;8.30;99.90;;;;;;5092174;28;20024;-50
2021/11/06 05:56:31;;;;;;;17.15;9.75;;;8.30;99.90;;;;;;5090873;28;20028;-49
2021/11/06 05:58:57;;;;;;;23.67;9.93;;;8.30;99.90;;;;;;5091476;28;20032;-48
2021/11/06 06:01:23;;;;;;;19.60;9.88;;;8.30;99.90;;;;;;5092099;28;20020;-50
2021/11/06 06:03:48;;;;;;;20.63;10.30;;;8.30;99.90;;;;;;5092382;28;20109;-50
2021/11/06 06:06:14;;;;;;;22.15;9.93;;;8.40;99.90;;;;;;5092780;28;20031;-50
2021/11/06 06:08:39;;;;;;;20.10;9.38;;;8.40;99.90;;;;;;5073843;28;20250;-51
2021/11/06 06:11:05;;;;;;;15.40;10.70;;;8.40;99.90;;;;;;5083597;28;20031;-49
2021/11/06 06:13:30;;;;;;;12.75;9.20;;;8.40;99.90;;;;;;5091874;28;20032;-51
2021/11/06 06:15:57;;;;;;;17.25;10.73;;;8.40;99.90;;;;;;5092161;28;20042;-49
2021/11/06 06:18:23;;;;;;;14.98;10.32;;;8.40;99.90;;;;;;5091127;28;20032;-49
2021/11/06 06:20:49;;;;;;;17.23;10.07;;;8.30;99.90;;;;;;5091783;28;20456;-48
2021/11/06 06:23:15;;;;;;;18.30;10.70;;;8.30;99.90;;;;;;5091839;28;20024;-51
2021/11/06 06:25:40;;;;;;;19.65;10.25;;;8.30;99.90;;;;;;5091525;28;20065;-49
2021/11/06 06:28:06;;;;;;;17.52;10.82;;;8.40;99.90;;;;;;5090025;28;20089;-51
2021/11/06 06:30:35;;;;;;;14.57;9.25;;;8.30;99.90;;;;;;5091340;28;20024;-51
2021/11/06 06:33:01;;;;;;;15.60;9.52;;;8.30;99.90;;;;;;5091530;28;20020;-48
2021/11/06 06:35:29;;;;;;;17.95;9.85;;;8.30;99.90;;;;;;5091262;28;20036;-50
2021/11/06 06:37:55;;;;;;;17.90;10.18;;;8.30;99.90;;;;;;5085479;28;20393;-51
2021/11/06 06:40:20;;;;;;;14.98;10.13;;;8.30;99.90;;;;;;5073795;28;20174;-50
2021/11/06 06:42:46;;;;;;;12.05;9.27;;;8.30;99.90;;;;;;5084321;28;20047;-48
2021/11/06 06:45:11;;;;;;;16.77;10.00;;;8.20;99.90;;;;;;5072915;28;20012;-51
2021/11/06 06:47:37;;;;;;;15.35;10.00;;;8.20;99.90;;;;;;5087682;28;20073;-49
2021/11/06 06:50:04;;;;;;;18.52;11.00;;;8.20;99.90;;;;;;5091182;28;20035;-49
2021/11/06 06:52:29;;;;;;;19.67;10.38;;;8.20;99.90;;;;;;5090961;28;20278;-50
2021/11/06 06:54:55;;;;;;;24.05;10.93;;;8.20;99.90;;;;;;5090842;28;20531;-48
2021/11/06 06:57:20;;;;;;;23.02;11.27;;;8.20;99.90;;;;;;5077594;28;20029;-50
2021/11/06 06:59:46;;;;;;;18.95;10.38;;;8.10;99.90;;;;;;5059454;28;20280;-51
2021/11/06 07:02:11;;;;;;;19.65;11.13;;;8.10;99.90;;;;;;5060296;28;20474;-48
2021/11/06 07:04:38;;;;;;;17.85;9.60;;;8.20;99.90;;;;;;5060808;28;20017;-50
2021/11/06 07:07:04;;;;;;;15.25;9.93;;;8.20;99.90;;;;;;5058427;28;20047;-50
2021/11/06 07:09:29;;;;;;;18.08;10.68;;;8.20;99.90;;;;;;5060631;28;20028;-49
2021/11/06 07:11:55;;;;;;;17.38;10.45;;;8.30;99.90;;;;;;5064879;28;20037;-49
2021/11/06 07:14:21;;;;;;;21.45;10.52;;;8.40;99.90;;;;;;5058749;28;20168;-49
2021/11/06 07:16:47;;;;;;;15.65;10.13;;;8.30;99.90;;;;;;5059474;28;20430;-51
2021/11/06 07:19:13;;;;;;;23.40;9.80;;;8.30;99.90;;;;;;5058523;28;20021;-49
2021/11/06 07:21:39;;;;;;;16.48;9.80;;;8.30;99.90;;;;;;5060506;28;20027;-51
2021/11/06 07:24:05;;;;;;;15.57;9.35;;;8.40;99.90;;;;;;5059711;28;20493;-48
2021/11/06 07:26:31;;;;;;;15.00;9.05;;;8.40;99.90;;;;;;5055883;28;20021;-51
2021/11/06 07:28:57;;;;;;;13.68;8.90;;;8.50;99.90;;;;;;5058331;28;20068;-49
2021/11/06 07:31:23;;;;;;;20.35;9.82;;;8.50;99.90;;;;;;5059681;28;20459;-49
2021/11/06 07:33:50;;;;;;;19.33;9.60;;;8.60;99.90;;;;;;5057341;28;20341;-50
2021/11/06 07:36:16;;;;;;;20.45;9.82;;;8.60;99.90;;;;;;5059626;28;20115;-48
2021/11/06 07:38:41;;;;;;;17.83;9.77;;;8.60;99.90;;;;;;5058048;28;20461;-49
2021/11/06 07:41:07;;;;;;;16.42;9.68;;;8.60;99.90;;;;;;5066873;28;20051;-52
2021/11/06 07:43:36;;;;;;;15.50;9.27;;;8.70;99.90;;;;;;5050159;28;20025;-49
2021/11/06 07:46:02;;;;;;;14.50;8.80;;;8.70;99.90;;;;;;5048561;28;20055;-50
2021/11/06 07:48:28;;;;;;;14.98;8.43;;;8.80;99.90;;;;;;5048967;28;20033;-48
2021/11/06 07:50:53;;;;;;;16.13;9.30;;;8.90;99.90;;;;;;5049611;28;20036;-48
2021/11/06 07:53:19;;;;;;;13.80;8.70;;;8.90;99.90;;;;;;5049263;28;20028;-48
2021/11/06 07:55:44;;;;;;;16.98;9.20;;;8.80;99.90;;;;;;5048757;28;20344;-47
2021/11/06 07:58:13;;;;;;;17.40;8.90;;;8.90;99.90;;;;;;5048818;28;20521;-47
2021/11/06 08:00:38;;;;;;;19.52;8.23;;;8.90;99.90;;;;;;5047964;28;20083;-47
2021/11/06 08:03:04;;;;;;;14.57;8.95;;;8.90;99.90;;;;;;5049447;28;20475;-47
2021/11/06 08:05:30;;;;;;;17.52;9.90;;;8.90;99.90;;;;;;5049351;28;20321;-47
2021/11/06 08:07:55;;;;;;;17.92;9.43;;;9.00;99.90;;;;;;5048093;28;20382;-47
2021/11/06 08:10:21;;;;;;;18.52;9.18;;;9.00;99.90;;;;;;5072360;28;20021;-47
2021/11/06 08:12:46;;;;;;;16.25;9.40;;;9.00;99.90;;;;;;5087743;28;20030;-47
2021/11/06 08:15:14;;;;;;;16.85;9.85;;;9.10;99.90;;;;;;5089746;28;20111;-46
2021/11/06 08:17:40;;;;;;;15.65;8.73;;;9.00;99.90;;;;;;5088724;28;20121;-47
2021/11/06 08:20:06;;;;;;;11.98;8.32;;;9.10;99.90;;;;;;5089268;28;20472;-47
2021/11/06 08:22:33;;;;;;;22.17;9.50;;;9.10;99.90;;;;;;5089225;28;20527;-47
2021/11/06 08:24:59;;;;;;;17.63;8.52;;;9.10;99.90;;;;;;5089041;28;20028;-49
2021/11/06 08:27:24;;;;;;;18.45;8.02;;;9.10;99.90;;;;;;5072377;28;20040;-47
2021/11/06 08:29:50;;;;;;;16.90;8.77;;;9.20;99.90;;;;;;5068709;28;20180;-50
2021/11/06 08:32:15;;;;;;;16.52;8.52;;;9.10;99.90;;;;;;5069224;28;20099;-50
2021/11/06 08:34:41;;;;;;;13.52;8.32;;;9.10;99.90;;;;;;5068603;28;20024;-48
2021/11/06 08:37:08;;;;;;;13.98;8.13;;;9.20;99.90;;;;;;5068019;28;20388;-48
2021/11/06 08:39:34;;;;;;;15.35;8.50;;;9.20;99.90;;;;;;5071173;28;20024;-48
2021/11/06 08:42:00;;;;;;;11.20;7.70;;;9.20;99.90;;;;;;5080929;28;20031;-48
2021/11/06 08:44:25;;;;;;;16.98;7.30;;;9.30;99.90;;;;;;5088673;28;20016;-48
2021/11/06 08:46:54;;;;;;;18.40;7.63;;;9.30;99.90;;;;;;5089315;28;20151;-49
2021/11/06 08:49:20;;;;;;;16.98;8.05;;;9.20;99.90;;;;;;5088457;28;20597;-49
2021/11/06 08:51:47;;;;;;;18.80;7.75;;;9.30;99.90;;;;;;5088679;28;20023;-47
2021/11/06 08:54:14;;;;;;;15.15;7.65;;;9.20;99.90;;;;;;5088831;28;20531;-49
2021/11/06 08:56:40;;;;;;;14.07;6.50;;;9.20;99.90;;;;;;5075904;28;20089;-49
2021/11/06 08:59:06;;;;;;;17.48;6.25;;;9.30;99.90;;;;;;5087709;28;20032;-50
2021/11/06 09:01:31;;;;;;;14.05;7.00;;;9.30;99.90;;;;;;5089019;28;20093;-50
2021/11/06 09:03:58;;;;;;;16.25;6.85;;;9.40;99.90;;;;;;5088745;28;20024;-48
2021/11/06 09:06:25;;;;;;;9.68;6.00;;;9.40;99.90;;;;;;5089123;28;20024;-47
2021/11/06 09:08:51;;;;;;;12.98;6.40;;;9.50;99.90;;;;;;5077707;28;20513;-48
2021/11/06 09:11:17;;;;;;;14.27;6.57;;;9.50;99.90;;;;;;5080024;28;20024;-48
2021/11/06 09:13:50;;;;;;;14.55;7.10;;;9.70;99.90;;;;;;5088621;28;20078;-50
2021/11/06 09:16:16;;;;;;;15.40;6.38;;;9.80;99.90;;;;;;5088892;28;20516;-51
2021/11/06 09:18:43;;;;;;;11.07;5.68;;;9.90;99.90;;;;;;5077975;28;20028;-49
2021/11/06 09:21:11;;;;;;;10.88;6.93;;;9.90;99.90;;;;;;5081719;28;20102;-49
2021/11/06 09:23:38;;;;;;;13.25;5.47;;;10.10;99.90;;;;;;5088243;28;20040;-48
2021/11/06 09:26:04;;;;;;;11.68;5.57;;;10.30;99.90;;;;;;5088899;28;20073;-48
2021/11/06 09:28:37;;;;;;;10.10;6.28;;;10.50;99.90;;;;;;5088043;28;20032;-49
2021/11/06 09:31:02;;;;;;;11.68;5.13;;;10.40;99.90;;;;;;5088771;28;20054;-49
2021/11/06 09:33:28;;;;;;;12.65;5.60;;;10.40;99.90;;;;;;5088455;28;20102;-50
2021/11/06 09:35:53;;;;;;;11.80;6.05;;;10.40;99.90;;;;;;5088418;28;20024;-50
2021/11/06 09:38:19;;;;;;;9.75;5.35;;;10.30;99.90;;;;;;5086354;28;20059;-48
2021/11/06 09:40:45;;;;;;;12.13;6.05;;;10.20;99.90;;;;;;5087986;28;20032;-48
2021/11/06 09:43:11;;;;;;;11.65;5.10;;;10.20;99.90;;;;;;5088236;28;20024;-48
2021/11/06 09:45:37;;;;;;;10.68;5.82;;;10.10;99.90;;;;;;5088296;28;20016;-49
2021/11/06 09:48:03;;;;;;;10.25;5.30;;;10.10;99.90;;;;;;5080427;28;20020;-49
2021/11/06 09:50:28;;;;;;;8.65;5.47;;;10.10;99.90;;;;;;5079821;28;20032;-52
2021/11/06 09:52:56;;;;;;;8.13;4.40;;;10.10;99.90;;;;;;5088091;28;20112;-49
2021/11/06 09:55:22;;;;;;;8.38;5.30;;;10.00;99.90;;;;;;5087728;28;20023;-48
2021/11/06 09:57:49;;;;;;;6.28;4.28;;;10.10;99.90;;;;;;5087389;28;20056;-50
2021/11/06 10:00:16;;;;;;;12.68;5.22;;;10.10;99.90;;;;;;5088092;28;20024;-49
2021/11/06 10:02:42;;;;;;;9.10;4.13;;;10.10;99.90;;;;;;5086530;28;20375;-50
2021/11/06 10:05:09;;;;;;;8.68;4.60;;;10.10;99.90;;;;;;5088242;28;20034;-51
2021/11/06 10:07:35;;;;;;;8.50;4.80;;;10.10;99.90;;;;;;5087523;28;20103;-49
2021/11/06 10:10:11;;;;;;;10.88;5.03;;;10.10;99.90;;;;;;5079415;28;20107;-50
2021/11/06 10:12:51;;;;;;;9.60;4.40;;;10.00;99.90;;;;;;5079837;28;20506;-49
2021/11/06 10:15:19;;;;;;;8.85;4.30;;;10.10;99.90;;;;;;5088071;28;20027;-49
2021/11/06 10:17:45;;;;;;;8.63;4.25;;;10.10;99.90;;;;;;5087657;28;20020;-48
2021/11/06 10:20:22;;;;;;;10.43;4.45;;;10.00;99.90;;;;;;5091663;28;20028;-48
2021/11/06 10:22:48;;;;;;;8.68;4.15;;;10.00;99.90;;;;;;5091477;28;20083;-48
2021/11/06 10:25:17;;;;;;;5.88;3.92;;;9.90;99.90;;;;;;5091825;28;20027;-48
2021/11/06 10:27:50;;;;;;;10.10;4.55;;;9.90;99.90;;;;;;5090710;28;20395;-48
2021/11/06 10:30:20;;;;;;;6.68;3.60;;;9.90;99.90;;;;;;5091644;28;20035;-49
2021/11/06 10:32:57;;;;;;;6.78;3.40;;;9.90;99.90;;;;;;5091450;28;20073;-50
2021/11/06 10:35:25;;;;;;;9.07;3.60;;;10.00;99.90;;;;;;5075100;28;20036;-48
2021/11/06 10:38:00;;;;;;;10.02;4.57;;;10.00;99.90;;;;;;5082190;28;20020;-49
2021/11/06 10:40:30;;;;;;;11.45;3.90;;;10.00;99.90;;;;;;5091192;28;20390;-51
2021/11/06 10:42:59;;;;;;;7.90;3.53;;;10.00;99.90;;;;;;5091477;28;20017;-48
2021/11/06 10:45:28;;;;;;;8.80;4.60;;;10.00;99.90;;;;;;5091385;28;20063;-48
2021/11/06 10:48:08;;;;;;;6.73;4.00;;;10.00;99.90;;;;;;5090621;28;20035;-48
2021/11/06 10:50:37;;;;;;;4.57;3.33;;;10.00;99.90;;;;;;5091398;28;20451;-50
2021/11/06 10:53:03;;;;;;;6.95;3.70;;;9.90;99.90;;;;;;5089878;28;20026;-48
2021/11/06 10:55:37;;;;;;;10.73;3.80;;;9.90;99.90;;;;;;5090962;28;20069;-48
2021/11/06 10:58:17;;;;;;;7.35;3.55;;;9.80;99.90;;;;;;5090908;28;20347;-49
2021/11/06 11:00:56;;;;;;;8.48;4.10;;;9.90;99.90;;;;;;5091490;28;20111;-48
2021/11/06 11:03:28;;;;;;;8.55;4.25;;;9.90;99.90;;;;;;5089582;28;20034;-48
2021/11/06 11:05:55;;;;;;;6.03;3.50;;;9.90;99.90;;;;;;5072909;28;20521;-47
2021/11/06 11:08:21;;;;;;;7.40;3.92;;;9.90;99.90;;;;;;5083901;28;20036;-49
2021/11/06 11:10:47;;;;;;;7.53;3.78;;;9.90;99.90;;;;;;5081236;28;20098;-49
2021/11/06 11:13:19;;;;;;;7.22;3.67;;;9.90;99.90;;;;;;5085060;28;20024;-49
2021/11/06 11:16:05;;;;;;;9.60;4.00;;;9.80;99.90;;;;;;5090724;28;20016;-48
2021/11/06 11:18:36;;;;;;;6.55;3.40;;;9.90;99.90;;;;;;5090060;28;20500;-49
2021/11/06 11:21:25;;;;;;;7.30;3.85;;;9.90;99.90;;;;;;5090876;28;20013;-50
2021/11/06 11:23:57;;;;;;;5.07;3.17;;;9.90;99.90;;;;;;5090594;28;20024;-48
2021/11/06 11:26:35;;;;;;;5.88;3.15;;;10.00;99.90;;;;;;5090327;28;20414;-49
2021/11/06 11:29:03;;;;;;;5.13;3.35;;;9.90;99.90;;;;;;5089420;28;20027;-49
2021/11/06 11:31:29;;;;;;;6.88;2.80;;;9.90;99.90;;;;;;5090002;28;20058;-49
2021/11/06 11:33:55;;;;;;;5.10;3.13;;;10.00;99.90;;;;;;5086514;28;20082;-48
2021/11/06 11:36:28;;;;;;;5.70;3.28;;;10.00;99.90;;;;;;5073270;28;20035;-48
2021/11/06 11:38:56;;;;;;;4.63;3.05;;;10.00;99.90;;;;;;5089035;28;20077;-47
2021/11/06 11:41:41;;;;;;;7.68;3.20;;;10.00;99.90;;;;;;5089935;28;20447;-48
2021/11/06 11:44:29;;;;;;;5.68;3.45;;;9.90;99.90;;;;;;5089973;28;20031;-50
2021/11/06 11:47:04;;;;;;;6.97;2.90;;;9.80;99.90;;;;;;5089751;28;20024;-48
2021/11/06 11:49:42;;;;;;;5.82;3.67;;;9.80;99.90;;;;;;5088836;28;20119;-49
2021/11/06 11:52:34;;;;;;;7.32;3.53;;;9.90;99.90;;;;;;5090220;28;20462;-49
2021/11/06 11:55:18;;;;;;;5.35;3.20;;;9.90;99.90;;;;;;5089563;28;20102;-49
2021/11/06 11:57:50;;;;;;;7.97;3.08;;;10.00;99.90;;;;;;5089355;28;20058;-48
2021/11/06 12:00:19;;;;;;;5.68;3.45;;;9.90;99.90;;;;;;5088296;28;20071;-49
2021/11/06 12:03:00;;;;;;;9.02;4.00;;;9.90;99.90;;;;;;5089758;28;20452;-48
2021/11/06 12:05:43;;;;;;;5.35;3.70;;;9.90;99.90;;;;;;5077068;28;20115;-51
2021/11/06 12:08:11;;;;;;;8.95;4.57;;;9.80;99.90;;;;;;5075601;28;20028;-48
2021/11/06 12:10:46;;;;;;;7.82;4.30;;;9.70;99.90;;;;;;5066688;28;20025;-48
2021/11/06 12:13:26;;;;;;;7.22;4.03;;;9.80;99.90;;;;;;5075587;28;20147;-48
2021/11/06 12:15:57;;;;;;;7.55;3.92;;;9.70;99.90;;;;;;5069274;28;20055;-49
2021/11/06 12:18:34;;;;;;;6.03;3.83;;;9.80;99.90;;;;;;5068668;28;20097;-48
2021/11/06 12:21:16;;;;;;;16.80;4.80;;;9.90;99.90;;;;;;5067930;28;20555;-49
2021/11/06 12:23:47;;;;;;;7.85;4.63;;;9.90;99.90;;;;;;5069340;28;20084;-50
2021/11/06 12:26:31;;;;;;;6.03;4.20;;;9.90;99.90;;;;;;5068865;28;20075;-50
2021/11/06 12:29:05;;;;;;;6.55;4.22;;;9.90;99.90;;;;;;5068575;28;20017;-48
2021/11/06 12:31:34;;;;;;;10.02;4.80;;;9.90;99.90;;;;;;5069356;28;20028;-49
2021/11/06 12:34:01;;;;;;;9.02;4.40;;;9.90;99.90;;;;;;5069378;28;20032;-50
2021/11/06 12:36:29;;;;;;;10.13;4.03;;;9.90;99.90;;;;;;5069030;28;20040;-50
2021/11/06 12:39:00;;;;;;;6.18;4.43;;;10.10;99.90;;;;;;5068099;28;20032;-49
2021/11/06 12:41:27;;;;;;;;;;;10.10;99.90;;;;;;5068215;28;20058;-49
2021/11/06 12:43:54;;;;;;;6.18;4.47;;;10.20;99.90;;;;;;5080726;28;19994;-49